Time;durP1;ratioP1;P1;durP2;ratioP2;P2;SDS_P1;SDS_P2;PMS_P1;PMS_P2;Temp;Humidity;BMP_temperature;BMP_pressure;BME280_temperature;BME280_humidity;BME280_pressure;Samples;Min_cycle;Max_cycle;Signal;HPM_P1;HPM_P2
2023/03/06 00:01:08;;;;;;;19.50;10.27;;;3.60;70.30;;;7.16;46.02;96836.03;5056046;28;20052;-44
2023/03/06 00:03:35;;;;;;;17.40;9.57;;;3.60;70.10;;;7.13;45.98;96837.16;5056324;28;20052;-45
2023/03/06 00:06:03;;;;;;;16.27;9.93;;;3.50;70.30;;;7.12;45.77;96832.88;5074242;28;20049;-46
2023/03/06 00:08:30;;;;;;;16.93;8.47;;;3.50;70.30;;;7.11;46.26;96831.19;5055975;28;20047;-43
2023/03/06 00:10:58;;;;;;;19.33;9.37;;;3.50;70.20;;;7.08;45.82;96831.53;5074289;28;20044;-44
2023/03/06 00:13:28;;;;;;;17.43;8.17;;;3.50;69.80;;;7.09;45.57;96841.97;5072130;28;20044;-45
2023/03/06 00:15:59;;;;;;;15.27;9.03;;;3.50;69.80;;;7.07;46.38;96835.16;5073846;28;20036;-45
2023/03/06 00:18:27;;;;;;;11.67;7.53;;;3.50;69.90;;;7.08;45.99;96831.53;5056778;28;20443;-46
2023/03/06 00:20:55;;;;;;;13.83;9.17;;;3.50;70.00;;;7.07;45.69;96821.94;5056546;28;20041;-44
2023/03/06 00:23:22;;;;;;;14.43;8.87;;;3.50;69.90;;;7.07;45.46;96820.09;5074138;28;20055;-44
2023/03/06 00:25:50;;;;;;;16.57;8.47;;;3.50;69.80;;;7.06;45.57;96820.28;5074286;28;20055;-44
2023/03/06 00:28:17;;;;;;;14.43;8.37;;;3.50;69.80;;;7.05;46.25;96816.78;5073908;28;20056;-45
2023/03/06 00:30:46;;;;;;;16.30;8.30;;;3.50;69.70;;;7.05;45.69;96810.66;5073853;28;20040;-47
2023/03/06 00:33:13;;;;;;;17.07;8.10;;;3.50;69.90;;;7.06;46.20;96813.16;5055133;28;20423;-44
2023/03/06 00:35:41;;;;;;;17.57;9.60;;;3.50;69.90;;;7.06;45.54;96809.69;5064407;28;20036;-42
2023/03/06 00:38:13;;;;;;;13.33;7.90;;;3.50;70.00;;;7.03;46.21;96802.88;5073256;28;20492;-46
2023/03/06 00:40:40;;;;;;;16.57;8.13;;;3.50;70.00;;;7.03;45.96;96796.78;5047210;28;20048;-44
2023/03/06 00:43:08;;;;;;;13.20;7.90;;;3.50;69.70;;;7.01;45.44;96791.63;5038969;28;20044;-43
2023/03/06 00:45:36;;;;;;;12.77;7.57;;;3.50;69.90;;;6.98;45.65;96804.34;5055325;28;20067;-44
2023/03/06 00:48:04;;;;;;;13.47;8.57;;;3.40;69.70;;;6.99;45.99;96798.91;5055326;28;20048;-44
2023/03/06 00:50:33;;;;;;;12.90;7.57;;;3.40;69.90;;;7.01;46.07;96794.28;5071375;28;20059;-47
2023/03/06 00:53:01;;;;;;;14.53;8.53;;;3.50;69.70;;;7.04;45.44;96793.16;5054949;28;20051;-46
2023/03/06 00:55:30;;;;;;;13.77;8.00;;;3.50;69.60;;;7.03;45.97;96791.47;5054364;28;20535;-43
2023/03/06 00:57:57;;;;;;;15.20;8.73;;;3.50;69.50;;;7.02;45.43;96792.47;5073371;28;20041;-45
2023/03/06 01:00:27;;;;;;;14.37;6.97;;;3.50;69.60;;;7.04;45.83;96777.28;5073126;28;20412;-46
2023/03/06 01:02:54;;;;;;;11.63;8.23;;;3.50;69.70;;;7.05;45.99;96778.91;5053941;28;20052;-48
2023/03/06 01:05:23;;;;;;;13.67;7.70;;;3.50;69.30;;;7.05;45.84;96777.09;5073034;28;20045;-44
2023/03/06 01:07:51;;;;;;;15.47;8.43;;;3.50;69.40;;;7.05;45.80;96776.25;5071976;28;20048;-45
2023/03/06 01:10:19;;;;;;;11.80;7.17;;;3.50;69.30;;;7.02;45.48;96777.41;5054775;28;20048;-48
2023/03/06 01:12:47;;;;;;;13.47;7.90;;;3.50;69.20;;;7.02;45.26;96773.97;5055079;28;20048;-47
2023/03/06 01:15:15;;;;;;;12.93;8.07;;;3.50;69.30;;;7.01;45.55;96770.47;5054955;28;20056;-44
2023/03/06 01:17:44;;;;;;;15.30;7.87;;;3.50;69.10;;;6.97;45.26;96763.84;5055096;28;20051;-44
2023/03/06 01:20:17;;;;;;;15.17;7.17;;;3.50;68.80;;;6.99;45.31;96761.84;5055307;28;20048;-48
2023/03/06 01:22:45;;;;;;;11.90;8.13;;;3.50;68.80;;;7.00;45.48;96765.31;5047093;28;20044;-46
2023/03/06 01:25:12;;;;;;;13.80;7.70;;;3.40;68.60;;;6.97;45.19;96763.00;5072926;28;20064;-48
2023/03/06 01:27:40;;;;;;;11.97;7.70;;;3.40;68.40;;;6.96;45.14;96767.47;5038182;28;20444;-49
2023/03/06 01:30:11;;;;;;;14.73;7.57;;;3.40;68.50;;;6.95;45.42;96770.28;5054570;28;20041;-47
2023/03/06 01:32:38;;;;;;;13.70;7.03;;;3.40;68.60;;;6.96;45.42;96756.03;5053796;28;20060;-44
2023/03/06 01:35:07;;;;;;;12.37;7.13;;;3.40;68.60;;;6.96;45.02;96756.03;5055068;28;20519;-44
2023/03/06 01:37:36;;;;;;;13.87;7.60;;;3.40;68.70;;;6.98;45.15;96754.91;5072034;28;20045;-46
2023/03/06 01:40:05;;;;;;;14.30;6.63;;;3.40;68.20;;;6.98;44.98;96746.97;5037567;28;20055;-45
2023/03/06 01:42:33;;;;;;;14.20;7.97;;;3.40;68.00;;;6.95;45.00;96752.56;5053838;28;20055;-46
2023/03/06 01:45:11;;;;;;;12.53;6.93;;;3.40;67.80;;;6.94;44.78;96750.09;5072508;28;20059;-46
2023/03/06 01:47:39;;;;;;;13.37;6.63;;;3.40;67.50;;;6.93;44.58;96751.09;5071936;28;20045;-43
2023/03/06 01:50:11;;;;;;;11.00;7.07;;;3.40;67.40;;;6.87;45.45;96742.78;5054256;28;20037;-46
2023/03/06 01:52:51;;;;;;;13.20;7.83;;;3.30;67.80;;;6.84;45.35;96737.00;5051804;28;20048;-46
2023/03/06 01:55:25;;;;;;;11.57;7.37;;;3.30;68.40;;;6.85;44.96;96722.78;5037738;28;20044;-44
2023/03/06 01:57:58;;;;;;;15.82;7.78;;;3.30;68.70;;;6.85;44.82;96726.25;5046784;28;20055;-47
2023/03/06 02:00:27;;;;;;;;;;;3.20;69.40;;;6.79;44.90;96723.44;5038602;28;20408;-48
2023/03/06 02:03:09;;;;;;;13.87;6.80;;;3.20;69.80;;;6.79;45.59;96713.66;5053565;28;19931;-47
2023/03/06 02:05:40;;;;;;;11.93;6.70;;;3.20;69.60;;;6.80;45.65;96719.78;5070788;28;20044;-43
2023/03/06 02:08:12;;;;;;;13.43;7.70;;;3.20;69.40;;;6.79;45.65;96712.84;5038350;28;20055;-45
2023/03/06 02:10:48;;;;;;;12.20;6.53;;;3.20;69.30;;;6.80;45.11;96706.56;5037644;28;20534;-45
2023/03/06 02:13:16;;;;;;;14.97;7.13;;;3.20;70.30;;;6.80;45.06;96698.63;5052985;28;20048;-43
2023/03/06 02:15:44;;;;;;;13.13;7.07;;;3.20;69.20;;;6.79;44.77;96697.78;5053278;28;20047;-46
2023/03/06 02:18:12;;;;;;;9.63;6.73;;;3.30;69.00;;;6.76;45.41;96698.09;5054301;28;20048;-44
2023/03/06 02:20:51;;;;;;;12.30;6.70;;;3.20;68.70;;;6.72;45.29;96695.94;5052952;28;20044;-44
2023/03/06 02:23:58;;;;;;;12.80;7.37;;;3.20;68.40;;;6.66;44.97;96689.47;5071417;28;20067;-46
2023/03/06 02:26:27;;;;;;;10.10;5.77;;;3.10;68.00;;;6.68;45.35;96684.84;5053045;28;20064;-44
2023/03/06 02:28:57;;;;;;;12.03;7.03;;;3.10;68.20;;;6.67;45.66;96685.88;5053652;28;20044;-49
2023/03/06 02:31:30;;;;;;;10.73;6.87;;;3.10;67.90;;;6.70;45.33;96681.06;5053634;28;20059;-43
2023/03/06 02:34:15;;;;;;;11.65;6.90;;;3.20;67.90;;;6.71;45.44;96681.91;5060902;28;20044;-45
2023/03/06 02:37:07;;;;;;;14.20;7.13;;;3.20;67.20;;;6.67;44.84;96686.69;5070886;28;20036;-49
2023/03/06 02:39:41;;;;;;;9.80;6.20;;;3.20;67.10;;;6.72;45.27;96685.38;5037663;28;20048;-44
2023/03/06 02:42:16;;;;;;;10.87;5.80;;;3.10;67.60;;;6.70;45.27;96677.59;5035973;28;20056;-48
2023/03/06 02:44:44;;;;;;;13.88;6.57;;;3.10;67.50;;;6.69;44.52;96674.13;5054234;28;20048;-49
2023/03/06 02:47:11;;;;;;;10.97;6.17;;;3.10;67.30;;;6.72;44.75;96680.09;5036538;28;20056;-47
2023/03/06 02:49:39;;;;;;;11.17;6.33;;;3.20;67.20;;;6.68;45.01;96677.75;5071275;28;20044;-45
2023/03/06 02:52:07;;;;;;;11.83;6.37;;;3.10;67.20;;;6.67;44.53;96675.28;5052935;28;20044;-46
2023/03/06 02:54:34;;;;;;;13.27;6.43;;;3.10;67.30;;;6.64;44.67;96668.47;5052685;28;20063;-47
2023/03/06 02:57:02;;;;;;;11.17;6.73;;;3.10;67.00;;;6.67;44.28;96664.69;5049035;28;20037;-46
2023/03/06 02:59:31;;;;;;;10.23;6.07;;;3.10;67.00;;;6.64;45.06;96668.47;5067705;28;20048;-44
2023/03/06 03:01:59;;;;;;;11.70;6.17;;;3.10;66.80;;;6.63;44.57;96661.53;5052558;28;20044;-45
2023/03/06 03:04:26;;;;;;;10.97;6.27;;;3.10;66.70;;;6.61;44.98;96660.03;5053427;28;20048;-43
2023/03/06 03:06:54;;;;;;;9.63;6.07;;;3.10;66.80;;;6.64;45.00;96665.00;5052706;28;20432;-48
2023/03/06 03:09:22;;;;;;;10.10;6.10;;;3.10;66.50;;;6.61;44.68;96665.31;5052889;28;20051;-44
2023/03/06 03:11:49;;;;;;;12.07;6.27;;;3.10;67.10;;;6.61;44.46;96668.81;5053077;28;20064;-43
2023/03/06 03:14:17;;;;;;;10.43;5.93;;;3.10;66.90;;;6.60;44.32;96656.56;5071204;28;20032;-46
2023/03/06 03:16:46;;;;;;;10.77;5.70;;;3.10;66.50;;;6.60;44.66;96661.03;5052727;28;20051;-42
2023/03/06 03:19:14;;;;;;;10.87;6.50;;;3.10;66.90;;;6.63;45.16;96655.41;5071080;28;20067;-50
2023/03/06 03:21:42;;;;;;;12.70;6.60;;;3.20;66.60;;;6.63;44.68;96652.75;5052427;28;20051;-44
2023/03/06 03:24:09;;;;;;;11.27;6.40;;;3.20;66.60;;;6.62;44.66;96651.94;5070379;28;20067;-45
2023/03/06 03:26:37;;;;;;;11.17;5.90;;;3.10;66.60;;;6.64;44.80;96654.44;5073778;28;20048;-46
2023/03/06 03:29:11;;;;;;;12.45;5.82;;;3.20;66.00;;;6.66;44.89;96652.44;5073573;28;20049;-43
2023/03/06 03:31:38;;;;;;;11.97;5.83;;;3.20;65.80;;;6.65;44.34;96646.34;5074703;28;20049;-44
2023/03/06 03:34:07;;;;;;;10.10;5.90;;;3.20;66.10;;;6.66;44.17;96647.16;5057027;28;20523;-43
2023/03/06 03:36:37;;;;;;;10.93;5.90;;;3.20;66.30;;;6.67;44.13;96640.91;5056337;28;20052;-45
2023/03/06 03:39:07;;;;;;;10.87;6.00;;;3.20;66.30;;;6.67;44.98;96636.44;5056154;28;20071;-45
2023/03/06 03:41:35;;;;;;;12.23;6.00;;;3.20;66.20;;;6.68;45.03;96635.41;5039697;28;20056;-45
2023/03/06 03:44:06;;;;;;;10.50;6.27;;;3.20;66.10;;;6.69;44.33;96637.09;5056627;28;20052;-44
2023/03/06 03:46:34;;;;;;;11.07;6.10;;;3.20;66.20;;;6.68;44.09;96635.41;5044030;28;20420;-47
2023/03/06 03:49:04;;;;;;;10.00;5.80;;;3.10;66.30;;;6.65;44.29;96640.19;5056226;28;20052;-44
2023/03/06 03:51:32;;;;;;;11.70;6.10;;;3.10;66.40;;;6.64;44.55;96639.38;5072921;28;20554;-46
2023/03/06 03:54:00;;;;;;;13.07;5.93;;;3.10;66.80;;;6.63;44.58;96643.03;5055896;28;20051;-42
2023/03/06 03:56:33;;;;;;;10.77;5.70;;;3.10;66.70;;;6.62;44.32;96638.72;5073121;28;20385;-47
2023/03/06 03:59:08;;;;;;;14.10;6.90;;;3.10;66.70;;;6.59;44.19;96632.91;5056013;28;20044;-45
2023/03/06 04:01:44;;;;;;;11.17;6.03;;;3.10;66.70;;;6.57;44.60;96630.47;5055339;28;20052;-50
2023/03/06 04:04:12;;;;;;;11.47;5.60;;;3.00;66.60;;;6.59;44.48;96624.97;5056424;28;20049;-42
2023/03/06 04:06:41;;;;;;;12.37;6.20;;;3.10;67.10;;;6.55;44.80;96621.00;5054629;28;20045;-46
2023/03/06 04:09:09;;;;;;;12.33;6.60;;;3.00;66.90;;;6.54;44.48;96612.25;5055521;28;20040;-47
2023/03/06 04:11:37;;;;;;;9.07;5.43;;;3.00;67.00;;;6.54;44.85;96620.19;5073755;28;20044;-43
2023/03/06 04:14:07;;;;;;;9.50;5.53;;;3.00;67.10;;;6.53;44.40;96620.34;5055813;28;20048;-45
2023/03/06 04:16:35;;;;;;;11.70;6.63;;;3.00;67.10;;;6.56;44.51;96614.75;5055994;28;20072;-45
2023/03/06 04:19:02;;;;;;;13.43;6.60;;;3.00;66.90;;;6.54;44.88;96616.72;5055529;28;20045;-42
2023/03/06 04:21:30;;;;;;;12.40;5.67;;;3.00;67.10;;;6.52;44.19;96610.78;5071963;28;20055;-44
2023/03/06 04:23:59;;;;;;;12.37;6.67;;;3.00;67.20;;;6.53;44.88;96609.78;5055221;28;20036;-46
2023/03/06 04:26:26;;;;;;;11.30;6.17;;;3.00;67.00;;;6.50;44.01;96603.81;5073540;28;20056;-46
2023/03/06 04:28:55;;;;;;;12.80;6.40;;;3.00;67.10;;;6.52;44.47;96603.66;5047506;28;20040;-45
2023/03/06 04:31:22;;;;;;;12.17;6.90;;;3.00;67.10;;;6.51;44.80;96599.34;5055360;28;20049;-46
2023/03/06 04:33:50;;;;;;;14.00;7.10;;;3.00;67.10;;;6.48;44.76;96603.16;5055746;28;20542;-44
2023/03/06 04:36:34;;;;;;;13.97;6.90;;;3.00;67.00;;;6.45;44.41;96595.53;5054375;28;20424;-43
2023/03/06 04:39:06;;;;;;;12.07;6.53;;;3.00;67.00;;;6.49;44.40;96596.03;5055437;28;20056;-47
2023/03/06 04:41:34;;;;;;;12.90;7.50;;;3.00;67.10;;;6.50;44.43;96601.16;5054433;28;20061;-42
2023/03/06 04:44:02;;;;;;;12.10;7.03;;;3.00;67.20;;;6.53;44.39;96596.53;5074044;28;20060;-46
2023/03/06 04:46:30;;;;;;;12.47;6.37;;;3.10;67.00;;;6.53;44.98;96588.63;5073189;28;20056;-45
2023/03/06 04:48:57;;;;;;;12.47;7.17;;;3.00;66.90;;;6.51;44.17;96586.13;5073727;28;20048;-45
2023/03/06 04:51:25;;;;;;;11.87;6.43;;;3.00;67.10;;;6.50;44.98;96587.94;5073380;28;20044;-46
2023/03/06 04:53:52;;;;;;;14.70;7.23;;;3.00;67.00;;;6.50;44.86;96582.66;5070561;28;20037;-44
2023/03/06 04:56:20;;;;;;;10.03;6.20;;;3.00;67.00;;;6.52;44.85;96584.31;5072919;28;20041;-44
2023/03/06 04:58:48;;;;;;;11.97;6.53;;;3.00;66.90;;;6.55;44.62;96584.00;5073069;28;20041;-43
2023/03/06 05:01:15;;;;;;;15.80;7.27;;;3.00;66.70;;;6.52;44.76;96587.78;5072720;28;20059;-45
2023/03/06 05:03:43;;;;;;;14.07;7.03;;;3.00;66.70;;;6.48;44.31;96582.00;5073124;28;20424;-45
2023/03/06 05:06:10;;;;;;;12.70;7.13;;;3.00;66.80;;;6.49;44.47;96581.03;5072965;28;20060;-44
2023/03/06 05:08:38;;;;;;;10.97;6.23;;;3.00;66.80;;;6.52;44.16;96579.03;5055046;28;20068;-46
2023/03/06 05:11:05;;;;;;;12.53;6.47;;;3.00;66.70;;;6.49;44.12;96583.66;5072984;28;20041;-46
2023/03/06 05:13:33;;;;;;;13.70;7.47;;;3.00;66.60;;;6.50;44.65;96579.19;5072776;28;20048;-44
2023/03/06 05:16:05;;;;;;;11.07;6.33;;;3.00;66.80;;;6.50;44.48;96581.84;5072980;28;20041;-46
2023/03/06 05:18:34;;;;;;;12.00;7.23;;;3.00;66.80;;;6.50;44.86;96580.00;5072590;28;20044;-43
2023/03/06 05:21:03;;;;;;;11.40;5.97;;;3.00;66.80;;;6.50;44.22;96585.31;5072895;28;20040;-48
2023/03/06 05:23:35;;;;;;;12.97;6.57;;;3.00;66.90;;;6.53;44.48;96584.16;5054913;28;20044;-47
2023/03/06 05:26:08;;;;;;;12.07;6.40;;;3.00;66.50;;;6.53;44.15;96581.50;5047592;28;20059;-45
2023/03/06 05:28:35;;;;;;;12.07;6.97;;;3.00;67.00;;;6.55;44.54;96582.16;5072551;28;20071;-52
2023/03/06 05:31:04;;;;;;;17.33;8.03;;;3.00;66.90;;;6.54;44.73;96577.88;5072384;28;20047;-44
2023/03/06 05:33:33;;;;;;;15.43;6.97;;;3.00;66.80;;;6.54;44.32;96579.69;5072699;28;20040;-43
2023/03/06 05:36:01;;;;;;;11.27;6.37;;;3.00;66.90;;;6.55;44.21;96576.88;5064534;28;20039;-45
2023/03/06 05:38:29;;;;;;;13.00;6.20;;;3.00;66.90;;;6.55;44.64;96568.13;5054274;28;20051;-46
2023/03/06 05:40:56;;;;;;;11.50;7.17;;;3.10;66.90;;;6.53;44.79;96575.38;5071950;28;20037;-43
2023/03/06 05:43:24;;;;;;;10.07;6.03;;;3.00;66.60;;;6.55;43.93;96568.94;5072210;28;20052;-45
2023/03/06 05:46:03;;;;;;;12.77;6.63;;;3.00;66.60;;;6.53;44.18;96563.00;5072310;28;20048;-45
2023/03/06 05:48:32;;;;;;;11.73;6.00;;;3.00;66.90;;;6.55;44.13;96557.53;5071733;28;20044;-46
2023/03/06 05:51:01;;;;;;;12.43;7.13;;;3.00;66.90;;;6.53;44.82;96565.63;5063661;28;20048;-44
2023/03/06 05:53:29;;;;;;;13.77;7.30;;;3.00;67.20;;;6.54;44.23;96564.66;5054619;28;20408;-44
2023/03/06 05:56:07;;;;;;;15.90;7.47;;;3.00;67.10;;;6.53;44.99;96565.63;5071576;28;20032;-43
2023/03/06 05:58:35;;;;;;;14.03;6.63;;;2.90;67.30;;;6.53;44.96;96556.88;5070974;28;20036;-46
2023/03/06 06:01:16;;;;;;;14.53;6.93;;;2.90;67.30;;;6.50;44.23;96568.63;5054452;28;20676;-44
2023/03/06 06:03:45;;;;;;;12.13;6.50;;;3.00;67.20;;;6.52;44.96;96561.34;5054031;28;20051;-46
2023/03/06 06:06:14;;;;;;;11.60;6.57;;;2.90;67.40;;;6.52;44.91;96569.28;5071677;28;20049;-43
2023/03/06 06:08:41;;;;;;;16.27;7.77;;;3.00;67.40;;;6.54;44.82;96562.00;5054072;28;20055;-43
2023/03/06 06:11:11;;;;;;;13.80;7.67;;;2.90;67.40;;;6.54;45.13;96562.00;5071666;28;20496;-44
2023/03/06 06:13:40;;;;;;;15.60;7.37;;;3.00;67.20;;;6.54;44.46;96554.06;5071964;28;20415;-43
2023/03/06 06:16:15;;;;;;;26.10;11.97;;;3.00;67.50;;;6.54;44.98;96566.47;5037540;28;20514;-44
2023/03/06 06:18:42;;;;;;;15.43;7.87;;;3.00;67.40;;;6.52;44.45;96558.72;5053959;28;20055;-46
2023/03/06 06:21:13;;;;;;;15.67;7.70;;;2.90;67.40;;;6.52;44.30;96571.09;5071642;28;20060;-44
2023/03/06 06:23:41;;;;;;;24.57;9.33;;;2.90;68.40;;;6.52;44.79;96563.19;5071512;28;20045;-46
2023/03/06 06:26:09;;;;;;;17.80;9.23;;;2.90;67.70;;;6.53;44.63;96567.47;5036332;28;20050;-44
2023/03/06 06:28:37;;;;;;;12.47;6.70;;;2.90;67.60;;;6.53;45.01;96576.22;5071098;28;20455;-47
2023/03/06 06:31:11;;;;;;;16.17;7.80;;;3.00;67.60;;;6.55;44.47;96584.81;5071143;28;20496;-46
2023/03/06 06:33:40;;;;;;;14.90;8.00;;;3.00;67.40;;;6.54;44.74;96575.25;5071369;28;20044;-46
2023/03/06 06:36:16;;;;;;;15.60;7.40;;;3.00;67.10;;;6.49;44.34;96583.66;5071351;28;20055;-46
2023/03/06 06:38:44;;;;;;;11.50;6.40;;;2.90;67.10;;;6.50;44.41;96576.56;5061814;28;20047;-46
2023/03/06 06:41:12;;;;;;;11.40;6.40;;;2.90;67.30;;;6.50;45.01;96574.72;5071440;28;20420;-48
2023/03/06 06:44:00;;;;;;;14.27;7.13;;;3.00;67.10;;;6.56;44.75;96583.84;5070310;28;20048;-46
2023/03/06 06:46:27;;;;;;;12.10;5.83;;;3.00;67.30;;;6.57;44.24;96569.63;5070801;28;20496;-45
2023/03/06 06:49:16;;;;;;;14.17;7.57;;;3.00;66.90;;;6.58;44.26;96576.56;5064931;28;20052;-49
2023/03/06 06:51:44;;;;;;;9.97;6.77;;;3.10;67.30;;;6.58;45.14;96568.63;5070830;28;20051;-46
2023/03/06 06:54:12;;;;;;;12.83;6.90;;;3.10;67.50;;;6.59;44.24;96574.75;5069479;28;20049;-46
2023/03/06 06:56:39;;;;;;;12.30;6.90;;;3.10;67.40;;;6.61;45.29;96575.41;5069813;28;20044;-46
2023/03/06 06:59:07;;;;;;;11.30;6.50;;;3.10;67.60;;;6.59;44.35;96585.31;5070472;28;20491;-45
2023/03/06 07:01:43;;;;;;;12.80;8.80;;;3.00;67.50;;;6.60;44.50;96581.69;5070495;28;20052;-46
2023/03/06 07:04:12;;;;;;;13.53;7.23;;;3.10;67.80;;;6.60;44.66;96581.69;5070837;28;20055;-47
2023/03/06 07:06:41;;;;;;;12.20;7.23;;;3.10;67.60;;;6.60;45.18;96585.16;5070522;28;20048;-48
2023/03/06 07:09:09;;;;;;;13.87;7.53;;;3.10;67.50;;;6.65;44.83;96580.22;5071028;28;20044;-44
2023/03/06 07:11:38;;;;;;;11.77;6.97;;;3.10;67.70;;;6.67;44.46;96580.88;5070840;28;20040;-46
2023/03/06 07:14:06;;;;;;;14.57;7.07;;;3.10;67.60;;;6.71;44.91;96584.03;5070976;28;20047;-44
2023/03/06 07:16:33;;;;;;;12.27;7.53;;;3.20;67.40;;;6.75;44.65;96587.19;5070397;28;20423;-45
2023/03/06 07:19:01;;;;;;;14.93;6.97;;;3.20;67.30;;;6.77;44.38;96588.66;5070812;28;20033;-43
2023/03/06 07:21:29;;;;;;;14.03;6.77;;;3.20;67.10;;;6.80;44.50;96592.78;5052928;28;20056;-47
2023/03/06 07:23:56;;;;;;;12.97;7.53;;;3.20;67.50;;;6.80;44.46;96590.97;5070798;28;20048;-46
2023/03/06 07:26:26;;;;;;;12.17;6.17;;;3.30;67.50;;;6.82;44.89;96594.28;5070668;28;20041;-46
2023/03/06 07:28:54;;;;;;;13.60;7.30;;;3.30;67.40;;;6.87;44.81;96601.75;5053099;28;20049;-44
2023/03/06 07:31:25;;;;;;;10.10;7.47;;;3.40;67.10;;;6.90;44.30;96599.59;5070425;28;20100;-43
2023/03/06 07:33:54;;;;;;;18.67;7.43;;;3.40;67.10;;;6.93;44.50;96601.09;5070421;28;20396;-46
2023/03/06 07:36:22;;;;;;;10.67;7.17;;;3.40;67.10;;;6.97;44.78;96601.59;5069830;28;20040;-42
2023/03/06 07:38:50;;;;;;;10.67;6.93;;;3.50;67.00;;;6.98;44.45;96600.59;5068916;28;20067;-46
2023/03/06 07:41:18;;;;;;;11.73;7.20;;;3.50;67.30;;;6.97;44.74;96604.25;5070316;28;20048;-43
2023/03/06 07:43:49;;;;;;;14.03;6.43;;;3.50;67.30;;;7.02;44.23;96612.53;5070375;28;20049;-45
2023/03/06 07:46:17;;;;;;;11.13;7.67;;;3.50;67.20;;;7.03;44.26;96611.50;5070150;28;20040;-42
2023/03/06 07:48:45;;;;;;;10.93;6.57;;;3.50;67.60;;;7.08;45.03;96612.69;5070088;28;20048;-46
2023/03/06 07:51:16;;;;;;;15.53;7.53;;;3.60;67.60;;;7.02;45.03;96610.69;5069770;28;20614;-42
2023/03/06 07:53:44;;;;;;;11.20;6.87;;;3.50;67.60;;;7.06;44.66;96611.19;5070153;28;20492;-43
2023/03/06 07:56:12;;;;;;;11.90;7.13;;;3.60;68.20;;;6.98;45.22;96604.06;5067625;28;20068;-46
2023/03/06 07:58:43;;;;;;;13.43;7.40;;;3.50;68.60;;;7.00;45.50;96612.69;5070265;28;20036;-45
2023/03/06 08:01:15;;;;;;;14.73;6.53;;;3.60;68.80;;;7.06;45.34;96616.50;5069998;28;20045;-44
2023/03/06 08:03:43;;;;;;;14.90;7.37;;;3.60;68.80;;;7.17;45.39;96605.56;5070468;28;20037;-44
2023/03/06 08:06:15;;;;;;;12.57;6.80;;;3.70;69.00;;;7.05;45.43;96607.69;5069945;28;20036;-44
2023/03/06 08:08:45;;;;;;;12.37;6.30;;;3.70;69.90;;;7.01;46.24;96613.50;5070135;28;20051;-43
2023/03/06 08:11:16;;;;;;;13.43;7.80;;;3.60;70.30;;;7.05;45.57;96614.81;5070973;28;20044;-43
2023/03/06 08:13:44;;;;;;;11.57;6.87;;;3.60;70.50;;;7.10;46.32;96615.16;5073717;28;20499;-44
2023/03/06 08:16:11;;;;;;;14.53;8.10;;;3.70;70.60;;;7.18;46.51;96609.88;5073727;28;20052;-44
2023/03/06 08:18:39;;;;;;;13.43;6.93;;;3.80;70.50;;;7.21;46.49;96620.13;5073939;28;20496;-43
2023/03/06 08:21:13;;;;;;;13.43;8.43;;;3.80;70.70;;;7.08;46.36;96619.81;5065502;28;20047;-43
2023/03/06 08:23:41;;;;;;;;;;;3.70;71.50;;;7.02;46.96;96612.53;5074298;28;20421;-43
2023/03/06 08:26:22;;;;;;;17.63;7.30;;;3.60;72.10;;;7.16;46.20;96617.16;5047246;28;19933;-44
2023/03/06 08:28:51;;;;;;;11.93;7.03;;;3.70;71.60;;;7.01;46.72;96624.09;5055963;28;20536;-44
2023/03/06 08:31:42;;;;;;;12.10;6.57;;;3.60;71.60;;;7.04;46.70;96614.00;5073604;28;20040;-44
2023/03/06 08:34:16;;;;;;;13.30;7.33;;;3.70;71.50;;;6.77;46.83;96628.34;5047882;28;20028;-44
2023/03/06 08:36:44;;;;;;;13.03;7.30;;;3.50;71.90;;;6.93;47.02;96627.53;5073350;28;20037;-45
2023/03/06 08:39:12;;;;;;;13.87;7.60;;;3.60;72.10;;;6.99;47.26;96621.59;5073887;28;20044;-43
2023/03/06 08:41:41;;;;;;;16.30;6.90;;;3.60;72.00;;;6.85;47.56;96627.53;5073376;28;20059;-43
2023/03/06 08:44:11;;;;;;;16.07;7.77;;;3.50;72.30;;;6.84;47.51;96629.38;5073298;28;20272;-43
2023/03/06 08:46:38;;;;;;;15.43;8.53;;;3.50;72.60;;;6.96;46.94;96627.22;5073259;28;20047;-43
2023/03/06 08:49:06;;;;;;;13.70;6.70;;;3.60;72.60;;;6.93;47.38;96640.78;5055597;28;20048;-44
2023/03/06 08:51:34;;;;;;;13.03;8.43;;;3.60;72.60;;;7.03;47.18;96630.03;5073092;28;20044;-43
2023/03/06 08:54:02;;;;;;;14.70;8.23;;;3.60;72.70;;;7.07;47.49;96629.53;5055481;28;20044;-45
2023/03/06 08:56:32;;;;;;;14.40;8.30;;;3.70;72.50;;;7.17;46.73;96633.84;5072876;28;20041;-42
2023/03/06 08:59:03;;;;;;;15.70;7.23;;;3.70;72.40;;;7.12;47.10;96636.19;5072200;28;20419;-46
2023/03/06 09:01:35;;;;;;;14.87;8.03;;;3.70;72.10;;;7.21;46.92;96635.19;5072947;28;20067;-45
2023/03/06 09:04:07;;;;;;;15.67;9.20;;;3.80;71.70;;;7.24;46.71;96627.75;5072846;28;20048;-45
2023/03/06 09:06:39;;;;;;;13.83;8.13;;;3.80;71.40;;;7.19;47.22;96637.16;5072673;28;20044;-45
2023/03/06 09:09:08;;;;;;;16.83;9.37;;;3.80;71.70;;;7.09;46.90;96634.66;5072958;28;20040;-44
2023/03/06 09:11:36;;;;;;;14.10;8.90;;;3.70;72.10;;;7.08;47.43;96639.16;5072687;28;20048;-46
2023/03/06 09:14:05;;;;;;;19.27;9.83;;;3.70;72.90;;;6.99;46.99;96636.66;5071297;28;20056;-45
2023/03/06 09:16:32;;;;;;;16.03;8.13;;;3.60;73.40;;;7.07;47.25;96648.06;5073008;28;20048;-43
2023/03/06 09:19:00;;;;;;;17.17;8.27;;;3.60;73.80;;;6.93;47.73;96643.41;5072784;28;20044;-46
2023/03/06 09:21:27;;;;;;;14.60;8.57;;;3.50;73.70;;;6.92;47.42;96639.13;5072655;28;20045;-43
2023/03/06 09:24:21;;;;;;;16.83;8.87;;;3.50;74.10;;;6.84;47.67;96653.19;5053393;28;20032;-43
2023/03/06 09:26:48;;;;;;;15.43;7.67;;;3.50;74.60;;;6.78;48.16;96647.69;5069861;28;20131;-43
2023/03/06 09:29:18;;;;;;;15.57;8.57;;;3.50;74.10;;;6.89;47.38;96639.44;5072628;28;20060;-45
2023/03/06 09:31:45;;;;;;;13.27;7.40;;;3.50;74.60;;;6.78;47.83;96647.69;5072141;28;20044;-46
2023/03/06 09:34:13;;;;;;;14.53;7.67;;;3.50;74.40;;;6.65;48.26;96646.34;5072110;28;20056;-45
2023/03/06 09:36:41;;;;;;;12.77;8.17;;;3.40;74.50;;;6.80;48.14;96643.88;5072115;28;20419;-44
2023/03/06 09:39:25;;;;;;;14.53;8.23;;;3.50;74.60;;;6.76;47.90;96647.03;5065897;28;20040;-48
2023/03/06 09:41:54;;;;;;;12.10;7.07;;;3.50;74.30;;;6.81;48.61;96647.38;5054170;28;20041;-46
2023/03/06 09:44:29;;;;;;;15.77;9.03;;;3.60;74.20;;;7.00;47.76;96643.59;5054767;28;20408;-49
2023/03/06 09:47:28;;;;;;;15.87;8.13;;;3.60;73.90;;;6.97;48.01;96639.47;5054661;28;20035;-43
2023/03/06 09:50:29;;;;;;;15.00;8.03;;;3.70;73.70;;;6.82;47.92;96663.06;5072060;28;20043;-44
2023/03/06 09:53:31;;;;;;;13.53;7.00;;;3.70;72.80;;;6.36;49.37;96648.53;5056800;28;20053;-44
2023/03/06 09:56:12;;;;;;;16.43;7.30;;;3.50;73.70;;;6.78;48.07;96647.69;5071667;28;20416;-44
2023/03/06 09:59:12;;;;;;;12.67;8.07;;;3.60;73.90;;;6.87;47.88;96646.72;5071416;28;20032;-45
2023/03/06 10:01:43;;;;;;;13.37;7.50;;;3.70;72.70;;;6.79;48.38;96652.00;5050231;28;20090;-44
2023/03/06 10:04:40;;;;;;;15.27;8.33;;;3.60;72.80;;;6.93;47.56;96637.31;5071842;28;20044;-44
2023/03/06 10:07:20;;;;;;;13.63;7.53;;;3.70;73.20;;;6.74;48.33;96643.72;5055343;28;20484;-43
2023/03/06 10:09:56;;;;;;;13.03;7.30;;;3.60;72.60;;;6.85;48.28;96638.94;5054679;28;20040;-46
2023/03/06 10:12:28;;;;;;;12.50;7.23;;;3.60;73.30;;;7.06;48.00;96645.59;5053691;28;20488;-46
2023/03/06 10:15:18;;;;;;;13.63;8.17;;;3.80;72.70;;;7.13;47.79;96640.47;5054213;28;20063;-43
2023/03/06 10:17:46;;;;;;;13.17;8.03;;;3.90;72.30;;;7.30;47.65;96631.53;5071496;28;20408;-45
2023/03/06 10:20:18;;;;;;;13.47;7.60;;;4.00;71.80;;;7.30;47.18;96642.97;5063229;28;20047;-43
2023/03/06 10:23:03;;;;;;;11.50;6.60;;;4.00;70.50;;;7.35;47.00;96637.19;5071298;28;20051;-48
2023/03/06 10:26:23;;;;;;;11.77;6.83;;;4.00;70.30;;;7.38;46.69;96636.00;5065454;28;20727;-45
2023/03/06 10:29:09;;;;;;;11.33;7.30;;;4.10;69.80;;;7.53;46.52;96634.34;5053768;28;20063;-47
2023/03/06 10:31:43;;;;;;;11.37;6.30;;;4.20;70.20;;;7.73;46.22;96634.00;5070797;28;20313;-45
2023/03/06 10:34:22;;;;;;;13.13;6.85;;;4.40;69.20;;;7.86;46.16;96634.31;5046519;28;20032;-43
2023/03/06 10:36:50;;;;;;;13.57;7.83;;;4.50;67.80;;;7.98;45.56;96640.91;5060116;28;20041;-42
2023/03/06 10:39:21;;;;;;;11.27;7.03;;;4.70;67.90;;;8.04;45.69;96640.22;5046717;28;20041;-43
2023/03/06 10:41:49;;;;;;;13.50;6.27;;;4.70;67.90;;;8.08;45.11;96636.25;5047065;28;20040;-43
2023/03/06 10:44:20;;;;;;;10.90;7.13;;;4.70;66.50;;;8.12;45.33;96641.19;5064908;28;20413;-45